createdAt,value
2019-05-13T00:00:48.060Z,2.00
2019-05-13T00:03:16.803Z,2.17
2019-05-13T00:05:45.611Z,2.27
2019-05-13T00:08:14.505Z,2.70
2019-05-13T00:10:45.596Z,2.40
2019-05-13T00:13:14.935Z,2.50
2019-05-13T00:15:44.593Z,2.57
2019-05-13T00:18:14.444Z,2.47
2019-05-13T00:20:44.336Z,3.10
2019-05-13T00:23:14.433Z,2.30
2019-05-13T00:25:44.496Z,2.37
2019-05-13T00:28:14.487Z,2.80
2019-05-13T00:30:44.443Z,3.20
2019-05-13T00:33:15.072Z,3.47
2019-05-13T00:35:45.130Z,3.37
2019-05-13T00:38:14.301Z,2.58
2019-05-13T00:40:44.344Z,2.93
2019-05-13T00:43:14.522Z,2.80
2019-05-13T00:45:45.644Z,3.07
2019-05-13T00:48:14.576Z,2.80
2019-05-13T00:50:44.291Z,2.53
2019-05-13T00:53:14.213Z,2.20
2019-05-13T00:55:44.556Z,2.50
2019-05-13T00:58:14.111Z,2.17
2019-05-13T01:00:45.504Z,2.23
2019-05-13T01:03:14.964Z,3.27
2019-05-13T01:05:44.430Z,2.90
2019-05-13T01:08:14.707Z,2.97
2019-05-13T01:10:45.209Z,2.70
2019-05-13T01:13:14.403Z,2.90
2019-05-13T01:15:44.354Z,3.25
2019-05-13T01:18:14.300Z,2.70
2019-05-13T01:20:44.074Z,3.00
2019-05-13T01:23:14.147Z,3.10
2019-05-13T01:25:44.481Z,2.60
2019-05-13T01:28:15.462Z,2.62
2019-05-13T01:30:44.365Z,2.90
2019-05-13T01:33:14.425Z,3.00
2019-05-13T01:35:44.801Z,2.90
2019-05-13T01:38:13.811Z,3.15
2019-05-13T01:40:43.971Z,3.40
2019-05-13T01:43:14.349Z,3.50
2019-05-13T01:45:44.213Z,3.20
2019-05-13T01:48:14.294Z,3.40
2019-05-13T01:50:44.680Z,3.00
2019-05-13T01:53:14.615Z,3.20
2019-05-13T01:55:44.420Z,3.67
2019-05-13T01:58:14.650Z,3.00
2019-05-13T02:00:44.534Z,2.60
2019-05-13T02:03:14.554Z,4.95
2019-05-13T02:05:44.538Z,3.10
2019-05-13T02:08:14.405Z,3.00
2019-05-13T02:10:53.906Z,3.00
2019-05-13T02:13:24.350Z,2.83
2019-05-13T02:15:54.812Z,2.77
2019-05-13T02:18:24.641Z,3.30
2019-05-13T02:20:55.286Z,2.93
2019-05-13T02:23:24.443Z,3.67
2019-05-13T02:25:54.131Z,3.40
2019-05-13T02:28:25.291Z,3.40
2019-05-13T02:30:56.940Z,3.00
2019-05-13T02:33:25.212Z,3.50
2019-05-13T02:35:54.234Z,2.97
2019-05-13T02:38:28.907Z,2.72
2019-05-13T02:40:53.888Z,2.77
2019-05-13T02:43:24.255Z,2.90
2019-05-13T02:45:54.569Z,3.33
2019-05-13T02:48:24.338Z,3.20
2019-05-13T02:50:54.212Z,3.23
2019-05-13T02:53:24.591Z,3.37
2019-05-13T02:55:54.703Z,3.50
2019-05-13T02:58:24.807Z,3.00
2019-05-13T03:00:54.418Z,3.20
2019-05-13T03:03:23.844Z,3.37
2019-05-13T03:05:54.513Z,4.27
2019-05-13T03:08:39.866Z,3.03
2019-05-13T03:10:54.601Z,2.87
2019-05-13T03:13:24.407Z,3.40
2019-05-13T03:16:02.801Z,3.62
2019-05-13T03:18:33.472Z,3.00
2019-05-13T03:21:03.294Z,4.20
2019-05-13T03:23:33.021Z,3.00
2019-05-13T03:26:03.129Z,2.98
2019-05-13T03:28:33.827Z,2.93
2019-05-13T03:31:06.534Z,3.77
2019-05-13T03:33:36.609Z,3.70
2019-05-13T03:36:07.518Z,2.87
2019-05-13T03:38:58.283Z,4.23
2019-05-13T03:41:12.192Z,3.00
2019-05-13T03:43:42.930Z,2.80
2019-05-13T03:46:12.920Z,3.12
2019-05-13T03:48:43.254Z,4.20
2019-05-13T03:51:21.935Z,2.35
2019-05-13T03:53:53.446Z,3.00
2019-05-13T03:56:23.883Z,2.57
2019-05-13T03:58:54.144Z,3.07
2019-05-13T04:01:24.846Z,3.00
2019-05-13T04:03:53.638Z,2.73
2019-05-13T04:06:23.678Z,2.23
2019-05-13T04:09:20.765Z,2.60
2019-05-13T04:11:33.061Z,2.97
2019-05-13T04:14:03.176Z,3.30
2019-05-13T04:16:33.130Z,2.40
2019-05-13T04:19:02.744Z,2.60
2019-05-13T04:21:33.822Z,2.90
2019-05-13T04:24:04.056Z,4.10
2019-05-13T04:26:33.288Z,5.50
2019-05-13T04:29:03.101Z,3.60
2019-05-13T04:31:33.520Z,2.87
2019-05-13T04:34:03.415Z,2.70
2019-05-13T04:36:32.687Z,2.57
2019-05-13T04:39:06.338Z,3.80
2019-05-13T04:41:36.095Z,3.58
2019-05-13T04:44:18.155Z,2.93
2019-05-13T04:46:47.493Z,3.07
2019-05-13T04:49:16.248Z,2.43
2019-05-13T04:51:45.176Z,2.43
2019-05-13T04:54:14.060Z,2.52
2019-05-13T04:56:43.080Z,2.00
2019-05-13T04:59:12.631Z,2.80
2019-05-13T05:02:05.539Z,2.10
2019-05-13T05:05:13.162Z,2.83
2019-05-13T05:07:58.050Z,1.63
2019-05-13T05:10:50.156Z,2.23
2019-05-13T05:13:32.873Z,2.03
2019-05-13T05:16:26.977Z,1.67
2019-05-13T05:19:13.539Z,2.13
2019-05-13T05:21:55.650Z,2.27
2019-05-13T05:24:55.198Z,2.10
2019-05-13T05:27:43.132Z,2.63
2019-05-13T05:30:35.683Z,2.43
2019-05-13T05:33:11.332Z,1.72
2019-05-13T05:36:17.783Z,2.27
2019-05-13T05:39:12.429Z,2.43
2019-05-13T05:41:44.508Z,2.10
2019-05-13T05:44:14.047Z,1.90
2019-05-13T05:46:43.074Z,2.00
2019-05-13T05:49:12.856Z,2.22
2019-05-13T05:51:47.469Z,1.80
2019-05-13T05:54:17.317Z,2.05
2019-05-13T05:56:47.909Z,1.80
2019-05-13T05:59:21.847Z,2.47
2019-05-13T06:01:52.798Z,2.60
2019-05-13T06:04:22.248Z,1.67
2019-05-13T06:06:52.218Z,2.53
2019-05-13T06:09:21.529Z,1.93
2019-05-13T06:11:52.190Z,1.90
2019-05-13T06:14:22.050Z,2.90
2019-05-13T06:16:52.012Z,2.50
2019-05-13T06:19:22.615Z,1.80
2019-05-13T06:21:51.908Z,2.03
2019-05-13T06:24:24.577Z,2.07
2019-05-13T06:26:52.060Z,2.45
2019-05-13T06:29:23.484Z,2.30
2019-05-13T06:31:52.278Z,1.77
2019-05-13T06:34:21.679Z,1.90
2019-05-13T06:36:52.358Z,3.97
2019-05-13T06:39:22.285Z,1.87
2019-05-13T06:41:51.785Z,2.00
2019-05-13T06:44:21.729Z,2.77
2019-05-13T06:46:51.827Z,1.90
2019-05-13T06:49:21.665Z,1.95
2019-05-13T06:51:52.688Z,2.77
2019-05-13T06:54:22.074Z,2.30
2019-05-13T06:56:51.796Z,2.02
2019-05-13T06:59:22.477Z,1.87
2019-05-13T07:01:51.585Z,2.83
2019-05-13T07:04:21.881Z,1.83
2019-05-13T07:07:01.072Z,1.90
2019-05-13T07:09:21.803Z,2.33
2019-05-13T07:11:52.084Z,1.77
2019-05-13T07:14:21.787Z,2.22
2019-05-13T07:16:52.446Z,2.93
2019-05-13T07:19:23.743Z,1.82
2019-05-13T07:21:52.134Z,1.97
2019-05-13T07:24:21.502Z,2.20
2019-05-13T07:26:52.321Z,1.97
2019-05-13T07:29:24.073Z,1.80
2019-05-13T07:31:52.225Z,2.60
2019-05-13T07:34:24.458Z,2.23
2019-05-13T07:36:51.823Z,3.10
2019-05-13T07:39:22.310Z,2.27
2019-05-13T07:41:52.195Z,2.30
2019-05-13T07:44:22.344Z,2.10
2019-05-13T07:46:52.421Z,1.67
2019-05-13T07:49:22.547Z,1.93
2019-05-13T07:51:52.245Z,2.30
2019-05-13T07:54:23.720Z,1.90
2019-05-13T07:56:52.596Z,1.83
2019-05-13T07:59:21.438Z,1.80
2019-05-13T08:01:52.169Z,1.60
2019-05-13T08:04:23.646Z,2.30
2019-05-13T08:06:52.367Z,1.20
2019-05-13T08:09:21.710Z,1.57
2019-05-13T08:12:04.727Z,1.40
2019-05-13T08:14:22.577Z,2.43
2019-05-13T08:16:51.867Z,2.10
2019-05-13T08:19:21.948Z,1.50
2019-05-13T08:21:51.480Z,1.87
2019-05-13T08:24:22.693Z,1.50
2019-05-13T08:26:53.133Z,1.50
2019-05-13T08:29:21.768Z,1.10
2019-05-13T08:31:51.837Z,1.80
2019-05-13T08:34:22.561Z,1.52
2019-05-13T08:36:51.663Z,1.60
2019-05-13T08:39:21.596Z,1.70
2019-05-13T08:41:51.636Z,1.57
2019-05-13T08:44:21.646Z,1.77
2019-05-13T08:46:51.871Z,1.77
2019-05-13T08:49:22.112Z,1.03
2019-05-13T08:51:52.661Z,1.80
2019-05-13T08:54:22.045Z,1.10
2019-05-13T08:56:52.020Z,1.43
2019-05-13T08:59:22.168Z,1.50
2019-05-13T09:01:52.104Z,1.27
2019-05-13T09:04:22.293Z,1.53
2019-05-13T09:06:52.374Z,1.50
2019-05-13T09:09:22.158Z,1.30
2019-05-13T09:11:51.611Z,1.30
2019-05-13T09:14:21.896Z,1.00
2019-05-13T09:16:52.556Z,1.50
2019-05-13T09:19:22.020Z,1.00
2019-05-13T09:21:52.564Z,1.00
2019-05-13T09:24:30.484Z,1.10
2019-05-13T09:26:52.670Z,1.00
2019-05-13T09:29:22.657Z,0.85
2019-05-13T09:31:52.135Z,0.97
2019-05-13T09:34:22.199Z,0.68
2019-05-13T09:36:52.015Z,0.70
2019-05-13T09:39:21.726Z,0.82
2019-05-13T09:41:52.266Z,0.80
2019-05-13T09:44:22.204Z,0.67
2019-05-13T09:46:51.754Z,0.90
2019-05-13T09:49:23.774Z,0.80
2019-05-13T09:51:52.650Z,0.90
2019-05-13T09:54:22.231Z,1.25
2019-05-13T09:56:51.967Z,1.00
2019-05-13T09:59:22.149Z,1.23
2019-05-13T10:01:52.053Z,1.07
2019-05-13T10:04:22.273Z,1.20
2019-05-13T10:06:52.049Z,1.10
2019-05-13T10:09:22.434Z,1.07
2019-05-13T10:11:51.937Z,0.80
2019-05-13T10:14:23.696Z,0.93
2019-05-13T10:16:52.448Z,0.70
2019-05-13T10:19:21.582Z,1.57
2019-05-13T10:21:52.349Z,1.53
2019-05-13T10:24:22.172Z,0.93
2019-05-13T10:26:51.938Z,0.80
2019-05-13T10:29:22.704Z,0.90
2019-05-13T10:31:53.071Z,1.17
2019-05-13T10:34:22.700Z,1.10
2019-05-13T10:36:56.901Z,0.97
2019-05-13T10:39:25.756Z,1.00
2019-05-13T10:41:54.522Z,1.07
2019-05-13T10:44:23.410Z,1.07
2019-05-13T10:46:52.419Z,0.90
2019-05-13T10:49:22.141Z,0.68
2019-05-13T10:51:52.709Z,1.13
2019-05-13T10:54:21.927Z,0.93
2019-05-13T10:56:53.055Z,1.20
2019-05-13T10:59:22.895Z,1.10
2019-05-13T11:01:51.775Z,0.80
2019-05-13T11:04:22.093Z,1.10
2019-05-13T11:06:52.446Z,1.00
2019-05-13T11:09:22.255Z,1.20
2019-05-13T11:11:52.830Z,0.80
2019-05-13T11:14:22.495Z,0.77
2019-05-13T11:16:52.247Z,1.23
2019-05-13T11:19:23.337Z,0.93
2019-05-13T11:21:52.318Z,1.30
2019-05-13T11:24:22.846Z,0.88
2019-05-13T11:26:53.047Z,1.00
2019-05-13T11:29:22.950Z,1.30
2019-05-13T11:31:55.535Z,1.10
2019-05-13T11:34:24.569Z,0.80
2019-05-13T11:36:53.729Z,1.17
2019-05-13T11:39:23.009Z,0.75
2019-05-13T11:41:51.846Z,0.90
2019-05-13T11:44:22.830Z,1.10
2019-05-13T11:46:52.935Z,1.07
2019-05-13T11:49:21.619Z,1.20
2019-05-13T11:51:51.929Z,1.30
2019-05-13T11:54:22.266Z,0.87
2019-05-13T11:57:01.236Z,1.03
2019-05-13T11:59:22.313Z,1.37
2019-05-13T12:01:53.700Z,1.05
2019-05-13T12:04:23.941Z,1.00
2019-05-13T12:06:54.482Z,1.03
2019-05-13T12:09:23.547Z,1.17
2019-05-13T12:11:52.445Z,1.17
2019-05-13T12:14:43.568Z,1.90
2019-05-13T12:16:51.750Z,1.17
2019-05-13T12:19:21.853Z,1.25
2019-05-13T12:21:54.081Z,1.57
2019-05-13T12:24:22.757Z,1.27
2019-05-13T12:26:53.302Z,1.30
2019-05-13T12:29:22.188Z,1.60
2019-05-13T12:31:52.922Z,1.73
2019-05-13T12:34:22.778Z,1.60
2019-05-13T12:36:51.896Z,1.97
2019-05-13T12:39:23.847Z,4.10
2019-05-13T12:41:53.730Z,4.17
2019-05-13T12:44:23.173Z,1.67
2019-05-13T12:46:54.406Z,1.70
2019-05-13T12:49:23.301Z,1.50
2019-05-13T12:52:00.122Z,1.00
2019-05-13T12:54:23.657Z,1.30
2019-05-13T12:56:52.870Z,1.37
2019-05-13T12:59:22.246Z,1.60
2019-05-13T13:01:52.791Z,1.00
2019-05-13T13:04:23.950Z,1.05
2019-05-13T13:06:53.368Z,1.20
2019-05-13T13:09:23.199Z,0.87
2019-05-13T13:11:54.433Z,1.20
2019-05-13T13:14:22.460Z,1.23
2019-05-13T13:16:54.029Z,1.20
2019-05-13T13:19:22.174Z,1.62
2019-05-13T13:21:53.607Z,1.50
2019-05-13T13:24:23.726Z,1.32
2019-05-13T13:29:24.220Z,1.33
2019-05-13T13:31:55.514Z,1.53
2019-05-13T13:34:25.760Z,1.47
2019-05-13T13:36:53.938Z,2.50
2019-05-13T13:39:25.399Z,1.50
2019-05-13T13:41:53.761Z,1.60
2019-05-13T13:44:24.700Z,1.20
2019-05-13T13:46:55.141Z,1.13
2019-05-13T13:49:24.205Z,1.10
2019-05-13T13:51:53.107Z,1.00
2019-05-13T13:54:22.604Z,1.40
2019-05-13T13:56:55.855Z,1.50
2019-05-13T13:59:24.561Z,0.93
2019-05-13T14:01:55.060Z,1.10
2019-05-13T14:04:23.950Z,1.17
2019-05-13T14:06:55.937Z,1.50
2019-05-13T14:07:22.514Z,1.17
2019-05-13T14:09:23.232Z,1.10
2019-05-13T14:11:52.040Z,1.50
2019-05-13T14:14:21.532Z,1.15
2019-05-13T14:16:51.988Z,0.93
2019-05-13T14:19:23.535Z,1.00
2019-05-13T14:21:52.780Z,1.60
2019-05-13T14:24:21.935Z,1.25
2019-05-13T14:26:52.319Z,1.83
2019-05-13T14:29:37.102Z,1.37
2019-05-13T14:31:54.351Z,0.90
2019-05-13T14:34:23.176Z,1.20
2019-05-13T14:36:52.964Z,1.13
2019-05-13T14:39:24.892Z,0.83
2019-05-13T14:41:57.473Z,1.30
2019-05-13T14:44:27.035Z,1.20
2019-05-13T14:47:01.671Z,1.00
2019-05-13T14:49:31.924Z,0.87
2019-05-13T14:52:01.383Z,1.40
2019-05-13T14:54:31.335Z,1.03
2019-05-13T14:57:02.370Z,0.85
2019-05-13T14:59:31.584Z,0.90
2019-05-13T15:02:01.450Z,0.77
2019-05-13T15:04:35.810Z,1.50
2019-05-13T15:07:05.179Z,0.80
2019-05-13T15:09:34.205Z,1.10
2019-05-13T15:12:03.058Z,1.20
2019-05-13T15:14:31.994Z,0.93
2019-05-13T15:17:09.234Z,1.10
2019-05-13T15:19:34.123Z,1.27
2019-05-13T15:22:19.452Z,1.00
2019-05-13T15:24:47.015Z,2.47
2019-05-13T15:27:15.762Z,1.10
2019-05-13T15:29:44.561Z,1.30
2019-05-13T15:32:13.728Z,1.75
2019-05-13T15:34:42.786Z,1.30
2019-05-13T15:37:11.576Z,1.00
2019-05-13T15:39:42.588Z,0.97
2019-05-13T15:42:12.167Z,0.80
2019-05-13T15:44:40.958Z,1.23
2019-05-13T15:47:20.255Z,1.30
2019-05-13T15:49:40.240Z,0.80
2019-05-13T15:52:11.701Z,0.70
2019-05-13T15:54:41.448Z,1.23
2019-05-13T15:57:11.962Z,1.00
2019-05-13T15:59:41.498Z,0.87
2019-05-13T16:02:11.758Z,0.65
2019-05-13T16:04:51.938Z,0.87
2019-05-13T16:07:12.248Z,0.83
2019-05-13T16:09:47.629Z,0.65
2019-05-13T16:12:16.646Z,0.80
2019-05-13T16:14:45.456Z,0.90
2019-05-13T16:17:14.348Z,0.55
2019-05-13T16:19:43.267Z,1.17
2019-05-13T16:22:12.216Z,0.60
2019-05-13T16:24:41.640Z,1.10
2019-05-13T16:27:11.812Z,0.80
2019-05-13T16:29:53.277Z,1.67
2019-05-13T16:32:26.955Z,0.80
2019-05-13T16:34:55.769Z,0.93
2019-05-13T16:37:24.521Z,0.53
2019-05-13T16:39:53.406Z,0.70
2019-05-13T16:42:22.671Z,0.80
2019-05-13T16:44:52.800Z,0.80
2019-05-13T16:47:21.732Z,1.20
2019-05-13T16:49:50.463Z,1.50
2019-05-13T16:52:21.917Z,0.97
2019-05-13T16:54:52.770Z,0.80
2019-05-13T16:57:20.708Z,1.40
2019-05-13T16:59:51.517Z,1.30
2019-05-13T17:02:19.989Z,0.93
2019-05-13T17:04:49.131Z,1.07
2019-05-13T17:07:17.935Z,1.00
2019-05-13T17:09:46.756Z,0.70
2019-05-13T17:12:28.640Z,1.10
2019-05-13T17:14:58.369Z,2.17
2019-05-13T17:17:27.126Z,1.10
2019-05-13T17:19:55.916Z,0.90
2019-05-13T17:22:24.797Z,0.70
2019-05-13T17:24:53.765Z,0.90
2019-05-13T17:27:22.691Z,0.80
2019-05-13T17:29:51.759Z,0.60
2019-05-13T17:32:22.216Z,1.00
2019-05-13T17:34:51.606Z,0.90
2019-05-13T17:37:22.122Z,0.57
2019-05-13T17:39:51.640Z,0.80
2019-05-13T17:42:21.473Z,0.65
2019-05-13T17:44:51.634Z,0.87
2019-05-13T17:47:21.895Z,0.78
2019-05-13T17:49:52.138Z,0.73
2019-05-13T17:52:22.099Z,0.62
2019-05-13T17:54:51.802Z,0.53
2019-05-13T17:57:21.722Z,1.52
2019-05-13T17:59:52.129Z,0.90
2019-05-13T18:02:21.030Z,0.65
2019-05-13T18:04:51.963Z,0.60
2019-05-13T18:07:21.472Z,0.80
2019-05-13T18:09:52.024Z,0.50
2019-05-13T18:12:22.320Z,0.60
2019-05-13T18:14:51.848Z,0.67
2019-05-13T18:17:21.501Z,0.72
2019-05-13T18:19:51.552Z,0.60
2019-05-13T18:22:21.369Z,0.60
2019-05-13T18:24:51.909Z,1.00
2019-05-13T18:27:22.157Z,0.57
2019-05-13T18:29:51.752Z,0.67
2019-05-13T18:32:21.458Z,0.60
2019-05-13T18:34:50.822Z,0.70
2019-05-13T18:37:22.000Z,0.50
2019-05-13T18:39:52.087Z,0.70
2019-05-13T18:42:22.383Z,0.70
2019-05-13T18:44:51.447Z,0.53
2019-05-13T18:47:22.093Z,0.57
2019-05-13T18:49:50.723Z,0.43
2019-05-13T18:52:22.331Z,0.60
2019-05-13T18:54:51.426Z,0.50
2019-05-13T18:57:21.326Z,0.47
2019-05-13T18:59:52.064Z,0.60
2019-05-13T19:02:21.525Z,0.37
2019-05-13T19:04:52.247Z,0.50
2019-05-13T19:07:21.856Z,0.40
2019-05-13T19:09:52.277Z,0.57
2019-05-13T19:12:21.979Z,0.50
2019-05-13T19:14:51.681Z,1.17
2019-05-13T19:17:23.884Z,1.17
2019-05-13T19:19:52.639Z,0.73
2019-05-13T19:22:21.574Z,0.90
2019-05-13T19:24:51.819Z,0.90
2019-05-13T19:27:21.640Z,1.00
2019-05-13T19:29:52.375Z,0.90
2019-05-13T19:32:22.002Z,0.80
2019-05-13T19:34:51.754Z,1.40
2019-05-13T19:37:22.502Z,1.63
2019-05-13T19:39:51.417Z,1.33
2019-05-13T19:42:22.357Z,1.35
2019-05-13T19:44:51.244Z,1.13
2019-05-13T19:47:20.813Z,1.43
2019-05-13T19:49:52.164Z,1.40
2019-05-13T19:52:21.398Z,1.73
2019-05-13T19:54:51.399Z,1.47
2019-05-13T19:57:21.353Z,1.80
2019-05-13T19:59:50.413Z,1.65
2019-05-13T20:02:19.171Z,1.40
2019-05-13T20:04:51.733Z,2.07
2019-05-13T20:07:22.452Z,2.00
2019-05-13T20:09:51.863Z,1.87
2019-05-13T20:12:23.017Z,1.80
2019-05-13T20:14:56.562Z,1.60
2019-05-13T20:17:26.238Z,1.53
2019-05-13T20:19:54.984Z,1.83
2019-05-13T20:22:23.835Z,1.90
2019-05-13T20:24:52.612Z,1.97
2019-05-13T20:27:21.359Z,2.30
2019-05-13T20:29:51.217Z,2.40
2019-05-13T20:32:22.227Z,2.02
2019-05-13T20:34:52.353Z,2.13
2019-05-13T20:37:21.548Z,2.23
2019-05-13T20:39:51.480Z,1.93
2019-05-13T20:42:23.369Z,1.47
2019-05-13T20:44:52.373Z,2.10
2019-05-13T20:47:21.443Z,1.70
2019-05-13T20:50:01.626Z,1.80
2019-05-13T20:52:38.364Z,2.00
2019-05-13T20:55:08.765Z,1.60
2019-05-13T20:57:41.862Z,1.97
2019-05-13T21:00:11.064Z,1.77
2019-05-13T21:02:41.798Z,1.67
2019-05-13T21:05:13.762Z,1.20
2019-05-13T21:07:44.493Z,1.67
2019-05-13T21:10:15.665Z,1.10
2019-05-13T21:12:46.800Z,2.17
2019-05-13T21:15:18.383Z,2.33
2019-05-13T21:17:48.519Z,1.53
2019-05-13T21:20:23.258Z,1.93
2019-05-13T21:22:51.712Z,1.57
2019-05-13T21:25:27.655Z,1.73
2019-05-13T21:27:57.463Z,1.60
2019-05-13T21:30:28.015Z,1.53
2019-05-13T21:33:02.104Z,1.70
2019-05-13T21:35:31.615Z,1.47
2019-05-13T21:38:01.668Z,1.50
2019-05-13T21:40:32.110Z,2.02
2019-05-13T21:43:01.701Z,1.80
2019-05-13T21:45:30.521Z,1.53
2019-05-13T21:48:01.567Z,2.20
2019-05-13T21:50:36.270Z,1.60
2019-05-13T21:53:02.026Z,1.77
2019-05-13T21:55:30.913Z,1.70
2019-05-13T21:57:59.710Z,1.83
2019-05-13T22:00:36.230Z,1.43
2019-05-13T22:03:05.397Z,1.62
2019-05-13T22:05:34.591Z,1.60
2019-05-13T22:08:03.460Z,1.93
2019-05-13T22:10:32.279Z,2.27
2019-05-13T22:13:01.504Z,2.20
2019-05-13T22:15:32.304Z,1.43
2019-05-13T22:18:01.960Z,1.80
2019-05-13T22:20:33.055Z,1.57
2019-05-13T22:23:01.538Z,1.97
2019-05-13T22:25:30.355Z,1.80
2019-05-13T22:28:01.119Z,2.07
2019-05-13T22:30:33.342Z,1.70
2019-05-13T22:33:01.799Z,2.20
2019-05-13T22:35:32.353Z,1.90
2019-05-13T22:38:01.819Z,2.17
2019-05-13T22:40:32.280Z,2.00
2019-05-13T22:43:01.100Z,1.60
2019-05-13T22:45:31.339Z,2.10
2019-05-13T22:48:02.619Z,1.90
2019-05-13T22:50:32.665Z,2.90
2019-05-13T22:53:02.622Z,2.33
2019-05-13T22:55:32.285Z,1.90
2019-05-13T22:58:02.066Z,2.17
2019-05-13T23:00:31.786Z,1.83
2019-05-13T23:03:01.749Z,1.43
2019-05-13T23:05:32.259Z,1.50
2019-05-13T23:08:02.281Z,2.03
2019-05-13T23:10:31.948Z,2.13
2019-05-13T23:13:02.189Z,1.77
2019-05-13T23:15:32.114Z,2.30
2019-05-13T23:18:01.832Z,2.47
2019-05-13T23:20:31.892Z,2.43
2019-05-13T23:23:01.570Z,2.20
2019-05-13T23:25:32.044Z,2.30
2019-05-13T23:28:03.010Z,2.30
2019-05-13T23:30:32.787Z,2.43
2019-05-13T23:33:02.490Z,2.57
2019-05-13T23:35:32.384Z,2.60
2019-05-13T23:38:01.908Z,2.63
2019-05-13T23:40:31.665Z,2.60
2019-05-13T23:43:02.069Z,2.40
2019-05-13T23:45:32.017Z,2.70
2019-05-13T23:48:01.796Z,2.20
2019-05-13T23:50:32.121Z,3.00
2019-05-13T23:53:01.288Z,2.43
2019-05-13T23:55:32.092Z,2.80
2019-05-13T23:58:01.704Z,3.40
